sensor_id;sensor_type;location;lat;lon;timestamp;P1;durP1;ratioP1;P2;durP2;ratioP2
2213;SDS011;1113;42.018;23.986;2023-02-28T00:00:00;26.92;;;12.25;;
2213;SDS011;1113;42.018;23.986;2023-02-28T00:02:33;26.00;;;14.00;;
2213;SDS011;1113;42.018;23.986;2023-02-28T00:05:00;24.35;;;11.82;;
2213;SDS011;1113;42.018;23.986;2023-02-28T00:07:28;19.88;;;10.90;;
2213;SDS011;1113;42.018;23.986;2023-02-28T00:09:56;22.00;;;10.48;;
2213;SDS011;1113;42.018;23.986;2023-02-28T00:12:23;21.88;;;11.43;;
2213;SDS011;1113;42.018;23.986;2023-02-28T00:14:50;28.73;;;14.25;;
2213;SDS011;1113;42.018;23.986;2023-02-28T00:17:17;32.70;;;14.20;;
2213;SDS011;1113;42.018;23.986;2023-02-28T00:19:46;31.85;;;13.55;;
2213;SDS011;1113;42.018;23.986;2023-02-28T00:22:13;21.95;;;12.50;;
2213;SDS011;1113;42.018;23.986;2023-02-28T00:24:40;22.58;;;12.95;;
2213;SDS011;1113;42.018;23.986;2023-02-28T00:27:08;24.45;;;13.57;;
2213;SDS011;1113;42.018;23.986;2023-02-28T00:29:35;24.95;;;14.93;;
2213;SDS011;1113;42.018;23.986;2023-02-28T00:32:02;26.85;;;15.48;;
2213;SDS011;1113;42.018;23.986;2023-02-28T00:34:29;24.95;;;14.30;;
2213;SDS011;1113;42.018;23.986;2023-02-28T00:36:56;24.75;;;14.57;;
2213;SDS011;1113;42.018;23.986;2023-02-28T00:39:22;25.23;;;13.80;;
2213;SDS011;1113;42.018;23.986;2023-02-28T00:41:49;20.02;;;12.45;;
2213;SDS011;1113;42.018;23.986;2023-02-28T00:44:17;26.10;;;12.43;;
2213;SDS011;1113;42.018;23.986;2023-02-28T00:46:46;18.85;;;12.95;;
2213;SDS011;1113;42.018;23.986;2023-02-28T00:49:13;27.10;;;11.90;;
2213;SDS011;1113;42.018;23.986;2023-02-28T00:51:40;19.88;;;12.30;;
2213;SDS011;1113;42.018;23.986;2023-02-28T00:54:06;18.02;;;11.70;;
2213;SDS011;1113;42.018;23.986;2023-02-28T00:56:33;23.35;;;11.48;;
2213;SDS011;1113;42.018;23.986;2023-02-28T00:59:00;24.60;;;11.38;;
2213;SDS011;1113;42.018;23.986;2023-02-28T01:01:28;23.88;;;9.20;;
2213;SDS011;1113;42.018;23.986;2023-02-28T01:03:55;19.30;;;9.10;;
2213;SDS011;1113;42.018;23.986;2023-02-28T01:06:22;15.75;;;8.20;;
2213;SDS011;1113;42.018;23.986;2023-02-28T01:08:48;23.95;;;10.65;;
2213;SDS011;1113;42.018;23.986;2023-02-28T01:11:18;22.25;;;12.00;;
2213;SDS011;1113;42.018;23.986;2023-02-28T01:13:45;21.40;;;12.32;;
2213;SDS011;1113;42.018;23.986;2023-02-28T01:16:12;25.38;;;13.50;;
2213;SDS011;1113;42.018;23.986;2023-02-28T01:18:41;24.55;;;13.10;;
2213;SDS011;1113;42.018;23.986;2023-02-28T01:21:09;26.40;;;11.77;;
2213;SDS011;1113;42.018;23.986;2023-02-28T01:23:38;28.80;;;14.15;;
2213;SDS011;1113;42.018;23.986;2023-02-28T01:26:05;25.00;;;11.60;;
2213;SDS011;1113;42.018;23.986;2023-02-28T01:28:33;22.10;;;11.75;;
2213;SDS011;1113;42.018;23.986;2023-02-28T01:31:00;27.23;;;11.95;;
2213;SDS011;1113;42.018;23.986;2023-02-28T01:33:27;21.02;;;12.02;;
2213;SDS011;1113;42.018;23.986;2023-02-28T01:35:58;28.65;;;13.70;;
2213;SDS011;1113;42.018;23.986;2023-02-28T01:38:25;40.33;;;12.70;;
2213;SDS011;1113;42.018;23.986;2023-02-28T01:40:53;24.35;;;12.93;;
2213;SDS011;1113;42.018;23.986;2023-02-28T01:43:21;23.27;;;13.52;;
2213;SDS011;1113;42.018;23.986;2023-02-28T01:45:49;26.40;;;13.27;;
2213;SDS011;1113;42.018;23.986;2023-02-28T01:48:16;24.08;;;13.73;;
2213;SDS011;1113;42.018;23.986;2023-02-28T01:50:45;29.23;;;13.80;;
2213;SDS011;1113;42.018;23.986;2023-02-28T01:53:16;29.45;;;13.70;;
2213;SDS011;1113;42.018;23.986;2023-02-28T01:55:48;32.10;;;13.93;;
2213;SDS011;1113;42.018;23.986;2023-02-28T01:58:18;30.98;;;12.93;;
2213;SDS011;1113;42.018;23.986;2023-02-28T02:00:45;21.90;;;12.23;;
2213;SDS011;1113;42.018;23.986;2023-02-28T02:03:13;28.30;;;11.98;;
2213;SDS011;1113;42.018;23.986;2023-02-28T02:05:44;26.45;;;12.27;;
2213;SDS011;1113;42.018;23.986;2023-02-28T02:08:13;38.65;;;19.73;;
2213;SDS011;1113;42.018;23.986;2023-02-28T02:10:44;38.20;;;18.08;;
2213;SDS011;1113;42.018;23.986;2023-02-28T02:13:21;25.98;;;12.98;;
2213;SDS011;1113;42.018;23.986;2023-02-28T02:16:01;26.10;;;13.20;;
2213;SDS011;1113;42.018;23.986;2023-02-28T02:18:37;29.58;;;15.95;;
2213;SDS011;1113;42.018;23.986;2023-02-28T02:21:23;28.85;;;13.18;;
2213;SDS011;1113;42.018;23.986;2023-02-28T02:24:31;30.95;;;15.40;;
2213;SDS011;1113;42.018;23.986;2023-02-28T02:27:23;24.92;;;14.15;;
2213;SDS011;1113;42.018;23.986;2023-02-28T02:30:03;37.08;;;16.20;;
2213;SDS011;1113;42.018;23.986;2023-02-28T02:32:53;40.33;;;21.40;;
2213;SDS011;1113;42.018;23.986;2023-02-28T02:35:42;46.05;;;29.70;;
2213;SDS011;1113;42.018;23.986;2023-02-28T02:38:16;35.05;;;18.60;;
2213;SDS011;1113;42.018;23.986;2023-02-28T02:40:53;35.00;;;16.13;;
2213;SDS011;1113;42.018;23.986;2023-02-28T02:43:29;30.92;;;16.13;;
2213;SDS011;1113;42.018;23.986;2023-02-28T02:46:04;25.77;;;14.15;;
2213;SDS011;1113;42.018;23.986;2023-02-28T02:48:34;27.17;;;12.70;;
2213;SDS011;1113;42.018;23.986;2023-02-28T02:51:07;25.90;;;13.60;;
2213;SDS011;1113;42.018;23.986;2023-02-28T02:53:41;29.08;;;11.90;;
2213;SDS011;1113;42.018;23.986;2023-02-28T02:56:11;28.63;;;10.85;;
2213;SDS011;1113;42.018;23.986;2023-02-28T02:58:41;24.73;;;12.10;;
2213;SDS011;1113;42.018;23.986;2023-02-28T03:01:10;22.95;;;12.20;;
2213;SDS011;1113;42.018;23.986;2023-02-28T03:03:40;22.98;;;12.00;;
2213;SDS011;1113;42.018;23.986;2023-02-28T03:06:09;38.33;;;13.52;;
2213;SDS011;1113;42.018;23.986;2023-02-28T03:08:37;24.73;;;13.45;;
2213;SDS011;1113;42.018;23.986;2023-02-28T03:11:04;21.65;;;13.43;;
2213;SDS011;1113;42.018;23.986;2023-02-28T03:13:50;21.00;;;12.93;;
2213;SDS011;1113;42.018;23.986;2023-02-28T03:22:25;28.38;;;14.70;;
2213;SDS011;1113;42.018;23.986;2023-02-28T03:25:02;31.77;;;18.35;;
2213;SDS011;1113;42.018;23.986;2023-02-28T03:27:36;32.47;;;16.60;;
2213;SDS011;1113;42.018;23.986;2023-02-28T03:30:09;27.90;;;16.27;;
2213;SDS011;1113;42.018;23.986;2023-02-28T03:32:42;32.08;;;17.65;;
2213;SDS011;1113;42.018;23.986;2023-02-28T03:35:16;32.40;;;16.10;;
2213;SDS011;1113;42.018;23.986;2023-02-28T03:37:49;29.90;;;17.13;;
2213;SDS011;1113;42.018;23.986;2023-02-28T03:40:19;32.28;;;19.35;;
2213;SDS011;1113;42.018;23.986;2023-02-28T03:42:54;31.20;;;21.52;;
2213;SDS011;1113;42.018;23.986;2023-02-28T03:45:24;38.45;;;21.73;;
2213;SDS011;1113;42.018;23.986;2023-02-28T03:47:55;31.80;;;19.63;;
2213;SDS011;1113;42.018;23.986;2023-02-28T03:50:29;43.55;;;25.70;;
2213;SDS011;1113;42.018;23.986;2023-02-28T03:53:04;36.13;;;23.88;;
2213;SDS011;1113;42.018;23.986;2023-02-28T03:55:37;34.97;;;18.85;;
2213;SDS011;1113;42.018;23.986;2023-02-28T03:58:10;31.70;;;20.90;;
2213;SDS011;1113;42.018;23.986;2023-02-28T04:00:43;32.40;;;20.05;;
2213;SDS011;1113;42.018;23.986;2023-02-28T04:03:24;53.63;;;37.80;;
2213;SDS011;1113;42.018;23.986;2023-02-28T04:06:30;43.40;;;26.80;;
2213;SDS011;1113;42.018;23.986;2023-02-28T04:09:12;25.10;;;16.38;;
2213;SDS011;1113;42.018;23.986;2023-02-28T04:11:41;34.50;;;14.88;;
2213;SDS011;1113;42.018;23.986;2023-02-28T04:14:10;31.15;;;15.88;;
2213;SDS011;1113;42.018;23.986;2023-02-28T04:16:38;31.83;;;16.15;;
2213;SDS011;1113;42.018;23.986;2023-02-28T04:19:06;45.10;;;22.60;;
2213;SDS011;1113;42.018;23.986;2023-02-28T04:21:36;41.13;;;23.20;;
2213;SDS011;1113;42.018;23.986;2023-02-28T04:24:05;28.52;;;15.70;;
2213;SDS011;1113;42.018;23.986;2023-02-28T04:26:34;29.15;;;14.52;;
2213;SDS011;1113;42.018;23.986;2023-02-28T04:29:03;35.28;;;17.77;;
2213;SDS011;1113;42.018;23.986;2023-02-28T04:31:31;53.08;;;23.95;;
2213;SDS011;1113;42.018;23.986;2023-02-28T04:33:58;52.38;;;21.38;;
2213;SDS011;1113;42.018;23.986;2023-02-28T04:39:18;34.90;;;17.63;;
2213;SDS011;1113;42.018;23.986;2023-02-28T04:41:47;35.15;;;18.02;;
2213;SDS011;1113;42.018;23.986;2023-02-28T04:44:14;35.55;;;17.52;;
2213;SDS011;1113;42.018;23.986;2023-02-28T04:46:41;41.10;;;16.70;;
2213;SDS011;1113;42.018;23.986;2023-02-28T04:49:21;32.17;;;16.83;;
2213;SDS011;1113;42.018;23.986;2023-02-28T04:51:48;30.60;;;15.68;;
2213;SDS011;1113;42.018;23.986;2023-02-28T04:54:15;28.35;;;14.10;;
2213;SDS011;1113;42.018;23.986;2023-02-28T04:56:50;29.88;;;16.17;;
2213;SDS011;1113;42.018;23.986;2023-02-28T04:59:19;27.88;;;16.10;;
2213;SDS011;1113;42.018;23.986;2023-02-28T05:01:46;30.65;;;14.75;;
2213;SDS011;1113;42.018;23.986;2023-02-28T05:04:17;27.95;;;15.35;;
2213;SDS011;1113;42.018;23.986;2023-02-28T05:06:45;36.20;;;16.30;;
2213;SDS011;1113;42.018;23.986;2023-02-28T05:09:12;34.20;;;16.00;;
2213;SDS011;1113;42.018;23.986;2023-02-28T05:11:39;25.25;;;13.88;;
2213;SDS011;1113;42.018;23.986;2023-02-28T05:17:22;32.80;;;20.80;;
2213;SDS011;1113;42.018;23.986;2023-02-28T05:19:48;43.15;;;23.88;;
2213;SDS011;1113;42.018;23.986;2023-02-28T05:22:18;44.05;;;25.60;;
2213;SDS011;1113;42.018;23.986;2023-02-28T05:24:48;45.65;;;27.00;;
2213;SDS011;1113;42.018;23.986;2023-02-28T05:27:15;46.90;;;29.95;;
2213;SDS011;1113;42.018;23.986;2023-02-28T05:29:43;53.33;;;32.05;;
2213;SDS011;1113;42.018;23.986;2023-02-28T05:32:10;55.00;;;33.22;;
2213;SDS011;1113;42.018;23.986;2023-02-28T05:34:37;56.33;;;32.20;;
2213;SDS011;1113;42.018;23.986;2023-02-28T05:37:04;56.47;;;34.33;;
2213;SDS011;1113;42.018;23.986;2023-02-28T05:39:32;59.00;;;33.35;;
2213;SDS011;1113;42.018;23.986;2023-02-28T05:41:59;57.95;;;34.55;;
2213;SDS011;1113;42.018;23.986;2023-02-28T05:44:26;51.50;;;33.78;;
2213;SDS011;1113;42.018;23.986;2023-02-28T05:46:54;63.13;;;36.03;;
2213;SDS011;1113;42.018;23.986;2023-02-28T05:49:20;80.45;;;46.45;;
2213;SDS011;1113;42.018;23.986;2023-02-28T05:51:47;72.32;;;42.47;;
2213;SDS011;1113;42.018;23.986;2023-02-28T05:54:14;60.55;;;39.50;;
2213;SDS011;1113;42.018;23.986;2023-02-28T05:56:41;64.43;;;41.05;;
2213;SDS011;1113;42.018;23.986;2023-02-28T05:59:10;167.52;;;81.40;;
2213;SDS011;1113;42.018;23.986;2023-02-28T06:01:38;147.65;;;72.72;;
2213;SDS011;1113;42.018;23.986;2023-02-28T06:04:07;158.30;;;80.45;;
2213;SDS011;1113;42.018;23.986;2023-02-28T06:06:36;188.50;;;95.18;;
2213;SDS011;1113;42.018;23.986;2023-02-28T06:09:04;121.55;;;62.70;;
2213;SDS011;1113;42.018;23.986;2023-02-28T06:11:31;78.45;;;46.08;;
2213;SDS011;1113;42.018;23.986;2023-02-28T06:13:58;104.00;;;55.58;;
2213;SDS011;1113;42.018;23.986;2023-02-28T06:16:26;89.40;;;47.63;;
2213;SDS011;1113;42.018;23.986;2023-02-28T06:18:53;64.90;;;41.30;;
2213;SDS011;1113;42.018;23.986;2023-02-28T06:21:23;65.90;;;40.45;;
2213;SDS011;1113;42.018;23.986;2023-02-28T06:23:50;57.40;;;37.47;;
2213;SDS011;1113;42.018;23.986;2023-02-28T06:26:17;45.28;;;31.40;;
2213;SDS011;1113;42.018;23.986;2023-02-28T06:28:44;52.58;;;35.40;;
2213;SDS011;1113;42.018;23.986;2023-02-28T06:31:12;44.58;;;28.77;;
2213;SDS011;1113;42.018;23.986;2023-02-28T06:33:41;51.55;;;30.67;;
2213;SDS011;1113;42.018;23.986;2023-02-28T06:36:09;51.50;;;31.70;;
2213;SDS011;1113;42.018;23.986;2023-02-28T06:38:38;46.47;;;28.73;;
2213;SDS011;1113;42.018;23.986;2023-02-28T06:41:06;52.80;;;26.10;;
2213;SDS011;1113;42.018;23.986;2023-02-28T06:43:37;36.00;;;19.80;;
2213;SDS011;1113;42.018;23.986;2023-02-28T06:46:08;41.38;;;22.55;;
2213;SDS011;1113;42.018;23.986;2023-02-28T06:48:41;45.70;;;25.65;;
2213;SDS011;1113;42.018;23.986;2023-02-28T06:51:10;39.88;;;22.90;;
2213;SDS011;1113;42.018;23.986;2023-02-28T06:53:40;40.63;;;25.08;;
2213;SDS011;1113;42.018;23.986;2023-02-28T06:56:08;36.90;;;23.38;;
2213;SDS011;1113;42.018;23.986;2023-02-28T06:58:36;34.90;;;19.27;;
2213;SDS011;1113;42.018;23.986;2023-02-28T07:01:04;31.75;;;18.70;;
2213;SDS011;1113;42.018;23.986;2023-02-28T07:03:34;25.67;;;18.23;;
2213;SDS011;1113;42.018;23.986;2023-02-28T07:06:02;48.65;;;24.38;;
2213;SDS011;1113;42.018;23.986;2023-02-28T07:08:30;31.50;;;20.58;;
2213;SDS011;1113;42.018;23.986;2023-02-28T07:10:59;36.95;;;22.95;;
2213;SDS011;1113;42.018;23.986;2023-02-28T07:13:26;29.70;;;19.92;;
2213;SDS011;1113;42.018;23.986;2023-02-28T07:15:53;33.35;;;20.92;;
2213;SDS011;1113;42.018;23.986;2023-02-28T07:18:21;33.13;;;20.25;;
2213;SDS011;1113;42.018;23.986;2023-02-28T07:20:48;42.83;;;23.23;;
2213;SDS011;1113;42.018;23.986;2023-02-28T07:23:16;33.65;;;19.92;;
2213;SDS011;1113;42.018;23.986;2023-02-28T07:25:43;33.47;;;20.00;;
2213;SDS011;1113;42.018;23.986;2023-02-28T07:28:12;32.33;;;16.83;;
2213;SDS011;1113;42.018;23.986;2023-02-28T07:30:39;30.42;;;19.27;;
2213;SDS011;1113;42.018;23.986;2023-02-28T07:33:06;42.83;;;21.48;;
2213;SDS011;1113;42.018;23.986;2023-02-28T07:35:36;37.17;;;22.48;;
2213;SDS011;1113;42.018;23.986;2023-02-28T07:38:03;39.97;;;21.30;;
2213;SDS011;1113;42.018;23.986;2023-02-28T07:40:30;39.45;;;24.75;;
2213;SDS011;1113;42.018;23.986;2023-02-28T07:42:58;62.42;;;30.90;;
2213;SDS011;1113;42.018;23.986;2023-02-28T07:45:27;57.55;;;27.95;;
2213;SDS011;1113;42.018;23.986;2023-02-28T07:47:56;42.97;;;21.00;;
2213;SDS011;1113;42.018;23.986;2023-02-28T07:50:23;45.60;;;22.60;;
2213;SDS011;1113;42.018;23.986;2023-02-28T07:52:55;49.00;;;20.77;;
2213;SDS011;1113;42.018;23.986;2023-02-28T07:55:22;37.23;;;19.57;;
2213;SDS011;1113;42.018;23.986;2023-02-28T07:57:49;44.77;;;24.00;;
2213;SDS011;1113;42.018;23.986;2023-02-28T08:00:16;39.70;;;22.03;;
2213;SDS011;1113;42.018;23.986;2023-02-28T08:02:45;34.63;;;21.30;;
2213;SDS011;1113;42.018;23.986;2023-02-28T08:05:11;37.40;;;21.53;;
2213;SDS011;1113;42.018;23.986;2023-02-28T08:07:38;44.80;;;19.33;;
2213;SDS011;1113;42.018;23.986;2023-02-28T08:10:05;35.40;;;19.33;;
2213;SDS011;1113;42.018;23.986;2023-02-28T08:12:35;43.60;;;19.60;;
2213;SDS011;1113;42.018;23.986;2023-02-28T08:15:02;27.43;;;15.83;;
2213;SDS011;1113;42.018;23.986;2023-02-28T08:17:29;28.20;;;17.40;;
2213;SDS011;1113;42.018;23.986;2023-02-28T08:19:57;35.00;;;17.93;;
2213;SDS011;1113;42.018;23.986;2023-02-28T08:22:24;32.83;;;16.50;;
2213;SDS011;1113;42.018;23.986;2023-02-28T08:24:51;44.77;;;18.07;;
2213;SDS011;1113;42.018;23.986;2023-02-28T08:27:18;31.20;;;17.23;;
2213;SDS011;1113;42.018;23.986;2023-02-28T08:29:44;28.57;;;15.50;;
2213;SDS011;1113;42.018;23.986;2023-02-28T08:32:11;48.10;;;15.33;;
2213;SDS011;1113;42.018;23.986;2023-02-28T08:34:41;27.30;;;16.13;;
2213;SDS011;1113;42.018;23.986;2023-02-28T08:37:10;27.23;;;14.50;;
2213;SDS011;1113;42.018;23.986;2023-02-28T08:39:37;34.00;;;15.87;;
2213;SDS011;1113;42.018;23.986;2023-02-28T08:42:03;90.43;;;19.10;;
2213;SDS011;1113;42.018;23.986;2023-02-28T08:44:31;52.63;;;18.50;;
2213;SDS011;1113;42.018;23.986;2023-02-28T08:46:58;125.57;;;26.23;;
2213;SDS011;1113;42.018;23.986;2023-02-28T08:49:24;60.17;;;21.53;;
2213;SDS011;1113;42.018;23.986;2023-02-28T08:51:51;52.07;;;19.80;;
2213;SDS011;1113;42.018;23.986;2023-02-28T08:54:20;53.03;;;18.93;;
2213;SDS011;1113;42.018;23.986;2023-02-28T08:56:48;34.27;;;14.30;;
2213;SDS011;1113;42.018;23.986;2023-02-28T08:59:15;29.13;;;12.60;;
2213;SDS011;1113;42.018;23.986;2023-02-28T09:01:42;34.13;;;12.67;;
2213;SDS011;1113;42.018;23.986;2023-02-28T09:04:09;27.13;;;12.90;;
2213;SDS011;1113;42.018;23.986;2023-02-28T09:06:36;23.13;;;11.33;;
2213;SDS011;1113;42.018;23.986;2023-02-28T09:09:04;27.97;;;13.10;;
2213;SDS011;1113;42.018;23.986;2023-02-28T09:11:34;31.70;;;15.27;;
2213;SDS011;1113;42.018;23.986;2023-02-28T09:14:01;35.63;;;16.53;;
2213;SDS011;1113;42.018;23.986;2023-02-28T09:16:29;34.33;;;18.27;;
2213;SDS011;1113;42.018;23.986;2023-02-28T09:18:57;35.03;;;17.10;;
2213;SDS011;1113;42.018;23.986;2023-02-28T09:21:24;30.07;;;14.80;;
2213;SDS011;1113;42.018;23.986;2023-02-28T09:23:51;30.87;;;16.20;;
2213;SDS011;1113;42.018;23.986;2023-02-28T09:26:19;37.57;;;17.30;;
2213;SDS011;1113;42.018;23.986;2023-02-28T09:28:50;30.20;;;16.97;;
2213;SDS011;1113;42.018;23.986;2023-02-28T09:31:19;30.70;;;14.77;;
2213;SDS011;1113;42.018;23.986;2023-02-28T09:33:48;21.00;;;13.60;;
2213;SDS011;1113;42.018;23.986;2023-02-28T09:36:15;25.40;;;13.77;;
2213;SDS011;1113;42.018;23.986;2023-02-28T09:38:41;37.87;;;19.57;;
2213;SDS011;1113;42.018;23.986;2023-02-28T09:41:11;33.17;;;17.97;;
2213;SDS011;1113;42.018;23.986;2023-02-28T09:43:41;37.10;;;20.00;;
2213;SDS011;1113;42.018;23.986;2023-02-28T09:46:17;44.63;;;20.93;;
2213;SDS011;1113;42.018;23.986;2023-02-28T09:48:53;30.50;;;18.00;;
2213;SDS011;1113;42.018;23.986;2023-02-28T09:51:30;33.40;;;16.83;;
2213;SDS011;1113;42.018;23.986;2023-02-28T09:54:05;32.50;;;14.20;;
2213;SDS011;1113;42.018;23.986;2023-02-28T09:56:33;32.20;;;16.60;;
2213;SDS011;1113;42.018;23.986;2023-02-28T09:59:05;28.30;;;15.73;;
2213;SDS011;1113;42.018;23.986;2023-02-28T10:01:43;34.97;;;17.87;;
2213;SDS011;1113;42.018;23.986;2023-02-28T10:04:19;43.43;;;20.17;;
2213;SDS011;1113;42.018;23.986;2023-02-28T10:07:04;34.63;;;17.83;;
2213;SDS011;1113;42.018;23.986;2023-02-28T10:09:42;35.30;;;20.00;;
2213;SDS011;1113;42.018;23.986;2023-02-28T10:12:13;38.50;;;19.77;;
2213;SDS011;1113;42.018;23.986;2023-02-28T10:14:43;33.80;;;18.30;;
2213;SDS011;1113;42.018;23.986;2023-02-28T10:17:16;40.83;;;19.50;;
2213;SDS011;1113;42.018;23.986;2023-02-28T10:19:50;38.40;;;19.63;;
2213;SDS011;1113;42.018;23.986;2023-02-28T10:22:26;33.93;;;16.93;;
2213;SDS011;1113;42.018;23.986;2023-02-28T10:24:56;33.93;;;16.27;;
2213;SDS011;1113;42.018;23.986;2023-02-28T10:27:28;25.47;;;14.00;;
2213;SDS011;1113;42.018;23.986;2023-02-28T10:29:56;24.33;;;14.93;;
2213;SDS011;1113;42.018;23.986;2023-02-28T10:32:26;24.33;;;13.13;;
2213;SDS011;1113;42.018;23.986;2023-02-28T10:34:55;24.27;;;12.53;;
2213;SDS011;1113;42.018;23.986;2023-02-28T10:37:25;25.77;;;13.00;;
2213;SDS011;1113;42.018;23.986;2023-02-28T10:39:52;25.77;;;13.57;;
2213;SDS011;1113;42.018;23.986;2023-02-28T10:42:22;30.37;;;14.23;;
2213;SDS011;1113;42.018;23.986;2023-02-28T10:47:41;23.93;;;11.70;;
2213;SDS011;1113;42.018;23.986;2023-02-28T10:50:26;24.13;;;11.80;;
2213;SDS011;1113;42.018;23.986;2023-02-28T10:53:07;29.63;;;13.07;;
2213;SDS011;1113;42.018;23.986;2023-02-28T10:55:42;29.33;;;13.73;;
2213;SDS011;1113;42.018;23.986;2023-02-28T11:00:55;26.10;;;13.37;;
2213;SDS011;1113;42.018;23.986;2023-02-28T11:03:25;27.20;;;16.27;;
2213;SDS011;1113;42.018;23.986;2023-02-28T11:05:56;30.73;;;15.93;;
2213;SDS011;1113;42.018;23.986;2023-02-28T11:08:23;33.90;;;21.30;;
2213;SDS011;1113;42.018;23.986;2023-02-28T11:10:53;30.70;;;18.90;;
2213;SDS011;1113;42.018;23.986;2023-02-28T11:13:24;30.07;;;15.00;;
2213;SDS011;1113;42.018;23.986;2023-02-28T11:15:54;18.30;;;10.90;;
2213;SDS011;1113;42.018;23.986;2023-02-28T11:18:26;29.10;;;14.43;;
2213;SDS011;1113;42.018;23.986;2023-02-28T11:20:56;27.90;;;15.83;;
2213;SDS011;1113;42.018;23.986;2023-02-28T11:23:26;25.97;;;15.10;;
2213;SDS011;1113;42.018;23.986;2023-02-28T11:25:54;27.67;;;17.70;;
2213;SDS011;1113;42.018;23.986;2023-02-28T11:28:25;27.00;;;18.13;;
2213;SDS011;1113;42.018;23.986;2023-02-28T11:31:00;23.00;;;16.40;;
2213;SDS011;1113;42.018;23.986;2023-02-28T11:33:31;26.33;;;16.50;;
2213;SDS011;1113;42.018;23.986;2023-02-28T11:36:09;31.87;;;18.80;;
2213;SDS011;1113;42.018;23.986;2023-02-28T11:38:38;29.93;;;17.30;;
2213;SDS011;1113;42.018;23.986;2023-02-28T11:41:11;28.97;;;18.97;;
2213;SDS011;1113;42.018;23.986;2023-02-28T11:43:56;27.20;;;17.00;;
2213;SDS011;1113;42.018;23.986;2023-02-28T11:46:33;25.20;;;17.00;;
2213;SDS011;1113;42.018;23.986;2023-02-28T11:49:13;35.57;;;19.83;;
2213;SDS011;1113;42.018;23.986;2023-02-28T11:51:51;30.83;;;19.00;;
2213;SDS011;1113;42.018;23.986;2023-02-28T11:57:35;35.00;;;20.13;;
2213;SDS011;1113;42.018;23.986;2023-02-28T12:00:14;25.87;;;16.90;;
2213;SDS011;1113;42.018;23.986;2023-02-28T12:02:56;30.03;;;17.97;;
2213;SDS011;1113;42.018;23.986;2023-02-28T12:05:33;31.80;;;21.63;;
2213;SDS011;1113;42.018;23.986;2023-02-28T12:08:07;34.47;;;19.50;;
2213;SDS011;1113;42.018;23.986;2023-02-28T12:10:52;34.70;;;20.40;;
2213;SDS011;1113;42.018;23.986;2023-02-28T12:13:26;32.67;;;20.10;;
2213;SDS011;1113;42.018;23.986;2023-02-28T12:19:03;29.80;;;18.90;;
2213;SDS011;1113;42.018;23.986;2023-02-28T12:21:44;26.20;;;17.40;;
2213;SDS011;1113;42.018;23.986;2023-02-28T12:24:39;35.07;;;21.90;;
2213;SDS011;1113;42.018;23.986;2023-02-28T12:27:20;31.57;;;20.40;;
2213;SDS011;1113;42.018;23.986;2023-02-28T12:29:52;36.47;;;22.27;;
2213;SDS011;1113;42.018;23.986;2023-02-28T12:32:23;32.77;;;18.77;;
2213;SDS011;1113;42.018;23.986;2023-02-28T12:34:55;35.10;;;22.10;;
2213;SDS011;1113;42.018;23.986;2023-02-28T12:37:27;28.00;;;17.13;;
2213;SDS011;1113;42.018;23.986;2023-02-28T12:40:00;33.80;;;19.90;;
2213;SDS011;1113;42.018;23.986;2023-02-28T12:42:31;34.10;;;18.87;;
2213;SDS011;1113;42.018;23.986;2023-02-28T12:45:02;27.03;;;17.80;;
2213;SDS011;1113;42.018;23.986;2023-02-28T12:47:34;33.33;;;18.43;;
2213;SDS011;1113;42.018;23.986;2023-02-28T12:50:02;28.13;;;18.67;;
2213;SDS011;1113;42.018;23.986;2023-02-28T12:52:37;31.10;;;18.10;;
2213;SDS011;1113;42.018;23.986;2023-02-28T12:55:14;31.53;;;17.87;;
2213;SDS011;1113;42.018;23.986;2023-02-28T12:57:50;34.20;;;19.20;;
2213;SDS011;1113;42.018;23.986;2023-02-28T13:00:28;33.63;;;20.37;;
2213;SDS011;1113;42.018;23.986;2023-02-28T13:06:11;32.40;;;19.70;;
2213;SDS011;1113;42.018;23.986;2023-02-28T13:08:56;31.43;;;20.47;;
2213;SDS011;1113;42.018;23.986;2023-02-28T13:11:30;43.43;;;23.63;;
2213;SDS011;1113;42.018;23.986;2023-02-28T13:13:59;37.83;;;20.07;;
2213;SDS011;1113;42.018;23.986;2023-02-28T13:19:22;41.80;;;21.47;;
2213;SDS011;1113;42.018;23.986;2023-02-28T13:21:51;36.57;;;22.13;;
2213;SDS011;1113;42.018;23.986;2023-02-28T13:27:12;34.30;;;20.70;;
2213;SDS011;1113;42.018;23.986;2023-02-28T13:29:51;41.60;;;23.47;;
2213;SDS011;1113;42.018;23.986;2023-02-28T13:32:29;38.97;;;22.30;;
2213;SDS011;1113;42.018;23.986;2023-02-28T13:44:15;35.37;;;20.67;;
2213;SDS011;1113;42.018;23.986;2023-02-28T13:50:19;38.50;;;24.57;;
2213;SDS011;1113;42.018;23.986;2023-02-28T13:52:50;34.40;;;23.43;;
2213;SDS011;1113;42.018;23.986;2023-02-28T13:55:38;34.10;;;22.87;;
2213;SDS011;1113;42.018;23.986;2023-02-28T14:01:22;33.37;;;21.57;;
2213;SDS011;1113;42.018;23.986;2023-02-28T14:04:21;33.40;;;22.30;;
2213;SDS011;1113;42.018;23.986;2023-02-28T14:07:15;37.27;;;23.00;;
2213;SDS011;1113;42.018;23.986;2023-02-28T14:09:47;25.50;;;18.03;;
2213;SDS011;1113;42.018;23.986;2023-02-28T14:15:28;34.03;;;20.50;;
2213;SDS011;1113;42.018;23.986;2023-02-28T14:21:02;26.63;;;19.93;;
2213;SDS011;1113;42.018;23.986;2023-02-28T14:23:59;30.83;;;18.87;;
2213;SDS011;1113;42.018;23.986;2023-02-28T14:26:55;26.47;;;17.57;;
2213;SDS011;1113;42.018;23.986;2023-02-28T14:29:33;26.17;;;17.97;;
2213;SDS011;1113;42.018;23.986;2023-02-28T14:32:22;31.93;;;21.40;;
2213;SDS011;1113;42.018;23.986;2023-02-28T14:34:58;32.30;;;23.30;;
2213;SDS011;1113;42.018;23.986;2023-02-28T14:37:37;29.33;;;19.00;;
2213;SDS011;1113;42.018;23.986;2023-02-28T14:40:11;29.93;;;19.97;;
2213;SDS011;1113;42.018;23.986;2023-02-28T14:42:46;25.87;;;16.97;;
2213;SDS011;1113;42.018;23.986;2023-02-28T14:45:21;26.23;;;18.63;;
2213;SDS011;1113;42.018;23.986;2023-02-28T14:47:48;32.43;;;20.33;;
2213;SDS011;1113;42.018;23.986;2023-02-28T14:50:20;25.53;;;17.90;;
2213;SDS011;1113;42.018;23.986;2023-02-28T14:52:50;39.47;;;26.33;;
2213;SDS011;1113;42.018;23.986;2023-02-28T14:55:21;25.07;;;18.57;;
2213;SDS011;1113;42.018;23.986;2023-02-28T14:57:53;20.70;;;15.57;;
2213;SDS011;1113;42.018;23.986;2023-02-28T15:00:23;26.50;;;17.77;;
2213;SDS011;1113;42.018;23.986;2023-02-28T15:02:51;26.13;;;17.10;;
2213;SDS011;1113;42.018;23.986;2023-02-28T15:05:22;21.57;;;15.43;;
2213;SDS011;1113;42.018;23.986;2023-02-28T15:08:00;21.90;;;18.17;;
2213;SDS011;1113;42.018;23.986;2023-02-28T15:10:30;22.43;;;17.37;;
2213;SDS011;1113;42.018;23.986;2023-02-28T15:12:58;25.30;;;19.70;;
2213;SDS011;1113;42.018;23.986;2023-02-28T15:15:27;25.97;;;20.80;;
2213;SDS011;1113;42.018;23.986;2023-02-28T15:18:01;17.57;;;12.93;;
2213;SDS011;1113;42.018;23.986;2023-02-28T15:20:32;19.57;;;15.00;;
2213;SDS011;1113;42.018;23.986;2023-02-28T15:23:01;25.17;;;19.37;;
2213;SDS011;1113;42.018;23.986;2023-02-28T15:25:28;24.90;;;19.00;;
2213;SDS011;1113;42.018;23.986;2023-02-28T15:27:56;25.87;;;20.20;;
2213;SDS011;1113;42.018;23.986;2023-02-28T15:30:24;25.30;;;18.87;;
2213;SDS011;1113;42.018;23.986;2023-02-28T15:33:03;20.30;;;15.23;;
2213;SDS011;1113;42.018;23.986;2023-02-28T15:35:35;28.07;;;21.33;;
2213;SDS011;1113;42.018;23.986;2023-02-28T15:38:12;28.53;;;21.47;;
2213;SDS011;1113;42.018;23.986;2023-02-28T15:40:44;31.13;;;23.50;;
2213;SDS011;1113;42.018;23.986;2023-02-28T15:43:19;31.00;;;20.60;;
2213;SDS011;1113;42.018;23.986;2023-02-28T15:45:51;28.07;;;21.13;;
2213;SDS011;1113;42.018;23.986;2023-02-28T15:48:21;36.90;;;28.30;;
2213;SDS011;1113;42.018;23.986;2023-02-28T15:50:53;28.93;;;22.47;;